Архив погоды в Сурском

Метеограмма Сурское
Вторник, 25 Июня
Время местн. Темп Ветер Видим Явления Облачность нижн/средн/верх Атм. давл. Влжн Точка росы ВНГО R Сост. почвы Tg s
Напр Скр Прв ур.ст ур.м изм
06:00 +16.2° С-З 2 - 20 км - ясно 757 766 +0.9 68% +10.2° более 2.5 км - Влажная (без луж) - -
03:00 +11.6° Ю,Ю-З 1 - 20 км - переменная облачность 756 765 +0.1 94% +10.7° более 2.5 км - - - -
00:00 +12.9° З 1 - 20 км - переменная облачность 756 765 +0.2 94% +11.9° более 2.5 км - - - -
Понедельник, 24 Июня
Время местн. Темп Ветер Видим Явления Облачность нижн/средн/верх Атм. давл. Влжн Точка росы ВНГО R Сост. почвы Tg s
Напр Скр Прв ур.ст ур.м изм
21:00 +16.2° З,С-З 1 - 20 км - переменная облачность 756 765 +0.5 85% +13.7° - - - - -
18:00 +22.1° С 3 - 20 км - преимущественно облачно 755 764 -0.2 55% +12.6° более 2.5 км - - - -
15:00 +21.6° С,С-З 2 - 20 км небо без изменений {гроза, ливневые осадки} облачно с прояснениями 755 764 -0.5 67% +15.2° более 2.5 км - - - -
12:00 +16.1° З,Ю-З 1 - 20 км небо без изменений {гроза, ливневые осадки} облачно 756 765 +0.1 93% +14.9° 600 м - - - -
09:00 +19.6° С-З 6 13 20 км - облачно 756 765 +1.1 59% +11.3° 600 м - - - -
06:00 +21.6° штиль 0 - 20 км - переменная облачность 755 763 0 74% +16.8° более 2.5 км - Сухая (без трещин) - -
03:00 +17.6° штиль 0 - 20 км - переменная облачность 755 763 +0.3 90% +15.9° более 2.5 км - - - -
00:00 +22.7° З 2 - 20 км - преимущественно облачно 754 763 +0.5 75% +18° 1 км - - - -
Воскресенье, 23 Июня
Время местн. Темп Ветер Видим Явления Облачность нижн/средн/верх Атм. давл. Влжн Точка росы ВНГО R Сост. почвы Tg s
Напр Скр Прв ур.ст ур.м изм
21:00 +25.2° З 1 - 20 км - облачно с прояснениями 754 762 +0.6 65% +18.1° 1 км - - - -
18:00 +31.7° С-З 2 - 20 км - облачно с прояснениями 753 762 -0.4 34% +13.7° 1 км - - - -
15:00 +33.2° З,С-З 3 - 20 км - переменная облачность 754 762 -0.5 25% +10.7° 1 км - - - -
12:00 +32.9° З 3 - 20 км - облачно с прояснениями 754 762 -0.6 25% +10.5° 1 км - - - -
09:00 +26.4° З 1 - 20 км - облачно с прояснениями 755 763 +0.2 49% +14.7° - - - - -
06:00 +20.6° Ю 1 - 20 км - переменная облачность 755 763 +0.2 67% +14.3° - - Сухая (без трещин) - -
03:00 +14.8° штиль 0 - 20 км - переменная облачность 754 763 +0.5 87% +12.6° более 2.5 км - - - -
00:00 +16.2° штиль 0 - 20 км - ясно 754 763 +0.1 86% +13.8° более 2.5 км - - - -
Суббота, 22 Июня
Время местн. Темп Ветер Видим Явления Облачность нижн/средн/верх Атм. давл. Влжн Точка росы ВНГО R Сост. почвы Tg s
Напр Скр Прв ур.ст ур.м изм
21:00 +21.7° З 1 - 20 км - переменная облачность 754 763 +0.2 68% +15.5° более 2.5 км - - - -
18:00 +31.7° З 1 - 20 км - незначительная облачность 754 762 -0.8 30% +12.2° 1 км - - - -
15:00 +32.3° З 4 - 20 км - переменная облачность 754 763 -0.5 25% +9.9° 1 км - - - -
12:00 +31.8° Ю-З 3 - 20 км - переменная облачность 755 763 -0.5 26% +9.9° 1 км - - - -
09:00 +27.7° Ю-З 1 - 20 км - переменная облачность 756 764 -0.5 35% +10.7° более 2.5 км - - - -
06:00 +16.9° В,Ю-В 1 - 20 км - переменная облачность 756 765 +0.2 72% +11.9° более 2.5 км - Сухая (без трещин) - -
03:00 +11.2° штиль 0 - 20 км - переменная облачность 756 765 +0.5 92% +9.9° - - - - -